Time;durP1;ratioP1;P1;durP2;ratioP2;P2;SDS_P1;SDS_P2;PMS_P1;PMS_P2;Temp;Humidity;BMP_temperature;BMP_pressure;BME280_temperature;BME280_humidity;BME280_pressure;Samples;Min_cycle;Max_cycle;Signal;HPM_P1;HPM_P2
2022/03/04 00:00:46;;;;;;;38.47;18.35;;;;;;;;;;4992548;28;20050;-77
2022/03/04 00:03:12;;;;;;;39.53;17.70;;;;;;;;;;4959305;28;20522;-78
2022/03/04 00:05:41;;;;;;;21.70;11.80;;;;;;;;;;4992468;28;20042;-75
2022/03/04 00:08:07;;;;;;;24.33;12.38;;;;;;;;;;4992930;28;20056;-77
2022/03/04 00:10:33;;;;;;;26.63;14.43;;;;;;;;;;4975839;28;20038;-77
2022/03/04 00:12:59;;;;;;;28.60;14.18;;;;;;;;;;4992650;28;20050;-77
2022/03/04 00:15:25;;;;;;;28.15;12.57;;;;;;;;;;4992779;28;20039;-78
2022/03/04 00:17:51;;;;;;;20.98;12.13;;;;;;;;;;4975087;28;20108;-79
2022/03/04 00:20:17;;;;;;;31.20;13.23;;;;;;;;;;4992522;28;20050;-77
2022/03/04 00:22:43;;;;;;;31.45;13.07;;;;;;;;;;4991983;28;20065;-77
2022/03/04 01:00:32;;;;;;;22.02;8.77;;;;;;;;;;5023658;28;20064;-77
2022/03/04 01:02:58;;;;;;;15.20;7.70;;;;;;;;;;5030661;28;20060;-77
2022/03/04 01:05:24;;;;;;;18.08;9.32;;;;;;;;;;5030910;28;20037;-76
2022/03/04 01:07:50;;;;;;;20.65;12.02;;;;;;;;;;5030602;28;20052;-76
2022/03/04 01:10:16;;;;;;;21.80;10.00;;;;;;;;;;5030718;28;20088;-77
2022/03/04 01:12:42;;;;;;;24.65;10.63;;;;;;;;;;5030347;28;20045;-79
2022/03/04 01:15:09;;;;;;;25.65;14.30;;;;;;;;;;5030827;28;20532;-76
2022/03/04 01:17:35;;;;;;;20.80;10.77;;;;;;;;;;5030496;28;20072;-77
2022/03/04 01:20:02;;;;;;;28.98;10.18;;;;;;;;;;5030149;28;20521;-77
2022/03/04 01:22:29;;;;;;;20.20;12.15;;;;;;;;;;5030604;28;20060;-77
2022/03/04 01:24:54;;;;;;;22.67;11.30;;;;;;;;;;5030337;28;20464;-78
2022/03/04 01:27:20;;;;;;;15.18;10.43;;;;;;;;;;5030318;28;20053;-77
2022/03/04 01:29:46;;;;;;;14.68;9.80;;;;;;;;;;5012686;28;20501;-78
2022/03/04 01:32:12;;;;;;;13.45;6.35;;;;;;;;;;5012884;28;20049;-79
2022/03/04 01:34:38;;;;;;;16.40;8.15;;;;;;;;;;5030344;28;20200;-78
2022/03/04 01:37:04;;;;;;;10.52;7.13;;;;;;;;;;5030431;28;20045;-78
2022/03/04 01:39:31;;;;;;;13.68;8.00;;;;;;;;;;5022774;28;20045;-78
2022/03/04 01:41:57;;;;;;;11.13;7.55;;;;;;;;;;5012596;28;20603;-78
2022/03/04 01:44:23;;;;;;;8.23;6.82;;;;;;;;;;5011171;28;20042;-78
2022/03/04 01:46:48;;;;;;;9.52;7.30;;;;;;;;;;5012439;28;20049;-79
2022/03/04 01:49:14;;;;;;;9.77;6.15;;;;;;;;;;5030029;28;20524;-79
2022/03/04 01:51:40;;;;;;;10.32;7.28;;;;;;;;;;5030001;28;20457;-79
2022/03/04 01:54:06;;;;;;;19.75;6.13;;;;;;;;;;5012564;28;20616;-79
2022/03/04 01:56:32;;;;;;;12.15;6.32;;;;;;;;;;5030244;28;20517;-80
2022/03/04 01:58:58;;;;;;;9.90;6.53;;;;;;;;;;5011791;28;20493;-79
2022/03/04 02:01:23;;;;;;;6.10;5.50;;;;;;;;;;5006285;28;20053;-79
2022/03/04 02:03:49;;;;;;;6.90;5.78;;;;;;;;;;5010127;28;20049;-79
2022/03/04 02:06:15;;;;;;;8.75;4.95;;;;;;;;;;4992929;28;20165;-80
2022/03/04 02:08:41;;;;;;;12.65;5.18;;;;;;;;;;5010055;28;20133;-80
2022/03/04 02:11:07;;;;;;;7.10;5.88;;;;;;;;;;5008949;28;20033;-80
2022/03/04 02:13:34;;;;;;;6.13;5.32;;;;;;;;;;5009973;28;20106;-79
2022/03/04 02:16:00;;;;;;;9.45;6.35;;;;;;;;;;5008440;28;20132;-77
2022/03/04 02:18:25;;;;;;;13.02;6.20;;;;;;;;;;4991500;28;20186;-78
2022/03/04 02:20:52;;;;;;;4.60;4.03;;;;;;;;;;4988950;28;20494;-78
2022/03/04 02:23:17;;;;;;;8.75;5.30;;;;;;;;;;4989998;28;20066;-79
2022/03/04 02:25:47;;;;;;;11.43;5.63;;;;;;;;;;4990250;28;20034;-80
2022/03/04 02:28:13;;;;;;;13.02;6.47;;;;;;;;;;4990477;28;20042;-78
2022/03/04 02:31:04;;;;;;;13.68;6.82;;;;;;;;;;4989333;28;20062;-79
2022/03/04 02:34:05;;;;;;;9.20;6.40;;;;;;;;;;4990866;28;20082;-79
2022/03/04 02:36:35;;;;;;;15.30;6.53;;;;;;;;;;4990960;28;20062;-79
2022/03/04 02:39:13;;;;;;;6.60;5.93;;;;;;;;;;4992207;28;20077;-80
2022/03/04 02:41:39;;;;;;;6.70;4.40;;;;;;;;;;4994852;28;20082;-79
2022/03/04 02:44:05;;;;;;;9.85;6.65;;;;;;;;;;4998128;28;20034;-81
2022/03/04 02:46:32;;;;;;;9.68;5.38;;;;;;;;;;4999626;28;20542;-81
2022/03/04 03:28:49;;;;;;;17.48;9.25;;;;;;;;;;5032476;28;20053;-76
2022/03/04 03:31:15;;;;;;;14.90;9.07;;;;;;;;;;5032047;28;20047;-76
2022/03/04 03:33:43;;;;;;;14.68;9.20;;;;;;;;;;5032933;28;20038;-75
2022/03/04 03:36:09;;;;;;;15.20;9.13;;;;;;;;;;5032641;28;20057;-75
2022/03/04 03:38:36;;;;;;;14.63;8.05;;;;;;;;;;5031456;28;20448;-75
2022/03/04 03:41:02;;;;;;;20.27;10.20;;;;;;;;;;5033376;28;20095;-75
2022/03/04 03:43:28;;;;;;;18.17;8.25;;;;;;;;;;5033967;28;20493;-75
2022/03/04 03:45:54;;;;;;;21.67;12.95;;;;;;;;;;5033663;28;20041;-76
2022/03/04 03:48:19;;;;;;;22.25;13.85;;;;;;;;;;5044023;28;20056;-76
2022/03/04 03:50:46;;;;;;;16.60;9.75;;;;;;;;;;5050130;28;20052;-76
2022/03/04 03:53:11;;;;;;;14.05;7.85;;;;;;;;;;5049145;28;20038;-78
2022/03/04 03:55:37;;;;;;;15.00;9.05;;;;;;;;;;5048594;28;20079;-76
2022/03/04 03:58:03;;;;;;;14.50;8.80;;;;;;;;;;5048026;28;20646;-77
2022/03/04 04:00:29;;;;;;;7.70;6.28;;;;;;;;;;5044599;28;20073;-78
2022/03/04 04:02:54;;;;;;;13.57;9.45;;;;;;;;;;5032938;28;20183;-77
2022/03/04 04:05:20;;;;;;;11.82;7.95;;;;;;;;;;5032336;28;20733;-76
2022/03/04 04:07:46;;;;;;;19.83;12.05;;;;;;;;;;5031471;28;20054;-78
2022/03/04 04:10:12;;;;;;;12.57;10.00;;;;;;;;;;5015431;28;20113;-79
2022/03/04 04:12:38;;;;;;;19.38;11.02;;;;;;;;;;5033519;28;20045;-78
2022/03/04 04:15:03;;;;;;;14.82;10.23;;;;;;;;;;5040927;28;20128;-79
2022/03/04 04:17:29;;;;;;;23.13;12.65;;;;;;;;;;5042312;28;20431;-78
2022/03/04 04:19:55;;;;;;;26.40;12.88;;;;;;;;;;5050922;28;20045;-79
2022/03/04 04:22:21;;;;;;;12.10;9.35;;;;;;;;;;5036149;28;20159;-78
2022/03/04 04:24:47;;;;;;;13.25;8.88;;;;;;;;;;5031114;28;20167;-79
2022/03/04 04:27:13;;;;;;;18.85;13.18;;;;;;;;;;5031794;28;20058;-78
2022/03/04 04:29:39;;;;;;;18.48;9.82;;;;;;;;;;5033836;28;20090;-78
2022/03/04 04:32:05;;;;;;;13.45;8.70;;;;;;;;;;5050387;28;20085;-79
2022/03/04 04:34:31;;;;;;;14.60;9.43;;;;;;;;;;5050163;28;20048;-77
2022/03/04 04:36:56;;;;;;;26.67;12.07;;;;;;;;;;5051248;28;20037;-79
2022/03/04 04:39:22;;;;;;;25.35;10.07;;;;;;;;;;5033651;28;20528;-78
2022/03/04 04:41:49;;;;;;;19.85;11.90;;;;;;;;;;5052232;28;20142;-78
2022/03/04 04:44:15;;;;;;;22.00;10.32;;;;;;;;;;5033293;28;20045;-77
2022/03/04 04:46:40;;;;;;;25.73;12.52;;;;;;;;;;5045819;28;20385;-80
2022/03/04 04:49:06;;;;;;;21.85;14.15;;;;;;;;;;5030967;28;20132;-79
2022/03/04 04:51:32;;;;;;;25.90;16.10;;;;;;;;;;5013709;28;20116;-78
2022/03/04 04:53:58;;;;;;;23.05;15.02;;;;;;;;;;5023149;28;20442;-75
2022/03/04 04:56:24;;;;;;;20.40;10.75;;;;;;;;;;5029862;28;20033;-76
2022/03/04 04:58:50;;;;;;;15.85;10.40;;;;;;;;;;5031104;28;20099;-76
2022/03/04 05:01:16;;;;;;;19.60;13.10;;;;;;;;;;5034174;28;20059;-76
2022/03/04 05:03:43;;;;;;;21.92;13.02;;;;;;;;;;5029463;28;20133;-79
2022/03/04 05:06:09;;;;;;;19.30;11.50;;;;;;;;;;5029275;28;20624;-78
2022/03/04 05:08:35;;;;;;;20.08;11.23;;;;;;;;;;5030550;28;20041;-79
2022/03/04 05:11:01;;;;;;;32.35;14.20;;;;;;;;;;5049432;28;20124;-77
2022/03/04 05:13:27;;;;;;;26.33;11.57;;;;;;;;;;5045394;28;20065;-78
2022/03/04 05:15:53;;;;;;;24.23;13.73;;;;;;;;;;5008557;28;20042;-79
2022/03/04 05:18:19;;;;;;;23.00;13.65;;;;;;;;;;5029281;28;20659;-78
2022/03/04 05:20:45;;;;;;;14.68;9.82;;;;;;;;;;5030154;28;20052;-78
2022/03/04 05:23:58;;;;;;;23.73;13.85;;;;;;;;;;5049003;28;20470;-79
2022/03/04 05:26:00;;;;;;;26.95;14.77;;;;;;;;;;5038955;28;20053;-77
2022/03/04 05:28:26;;;;;;;17.98;12.90;;;;;;;;;;5029164;28;20076;-79
2022/03/04 05:30:52;;;;;;;23.13;14.23;;;;;;;;;;5029087;28;20099;-77
2022/03/04 05:33:18;;;;;;;13.25;11.55;;;;;;;;;;5029222;28;20041;-75
2022/03/04 05:35:44;;;;;;;24.05;14.95;;;;;;;;;;5029121;28;20095;-76
2022/03/04 05:38:10;;;;;;;25.65;16.08;;;;;;;;;;5028820;28;20057;-77
2022/03/04 05:40:36;;;;;;;27.25;17.23;;;;;;;;;;5028850;28;20061;-76
2022/03/04 05:43:02;;;;;;;35.97;17.02;;;;;;;;;;5028782;28;20144;-75
2022/03/04 05:45:29;;;;;;;16.48;9.82;;;;;;;;;;5047466;28;20052;-75
2022/03/04 05:47:54;;;;;;;18.33;13.00;;;;;;;;;;5046605;28;20720;-77
2022/03/04 05:50:20;;;;;;;36.03;19.83;;;;;;;;;;5028762;28;20042;-76
2022/03/04 05:52:46;;;;;;;23.55;15.23;;;;;;;;;;5028859;28;20050;-76
2022/03/04 05:55:12;;;;;;;24.35;14.85;;;;;;;;;;5028855;28;20041;-77
2022/03/04 05:57:38;;;;;;;23.88;15.23;;;;;;;;;;5028805;28;20042;-76
2022/03/04 06:00:04;;;;;;;18.45;12.80;;;;;;;;;;5044716;28;20025;-76
2022/03/04 06:02:31;;;;;;;23.15;16.50;;;;;;;;;;5048499;28;20063;-76
2022/03/04 06:04:57;;;;;;;18.90;13.10;;;;;;;;;;5048233;28;20448;-77
2022/03/04 06:07:23;;;;;;;29.27;20.52;;;;;;;;;;5048659;28;20063;-76
2022/03/04 06:09:48;;;;;;;23.83;16.35;;;;;;;;;;5048518;28;20033;-78
2022/03/04 06:12:14;;;;;;;23.27;15.00;;;;;;;;;;5048704;28;20048;-77
2022/03/04 06:14:40;;;;;;;32.13;18.30;;;;;;;;;;5027976;28;20122;-78
2022/03/04 06:17:06;;;;;;;36.78;24.58;;;;;;;;;;5030776;28;20103;-79
2022/03/04 06:19:33;;;;;;;22.92;16.92;;;;;;;;;;5030225;28;20465;-76
2022/03/04 06:21:58;;;;;;;28.98;19.10;;;;;;;;;;5029226;28;20080;-76
2022/03/04 06:24:24;;;;;;;25.75;16.27;;;;;;;;;;5028312;28;20109;-76
2022/03/04 06:26:51;;;;;;;29.58;16.02;;;;;;;;;;5029416;28;20060;-76
2022/03/04 06:29:17;;;;;;;27.38;18.27;;;;;;;;;;5011197;28;20050;-76
2022/03/04 06:31:42;;;;;;;32.63;23.95;;;;;;;;;;5012440;28;20076;-77
2022/03/04 06:34:08;;;;;;;23.17;17.10;;;;;;;;;;5012323;28;20095;-77
2022/03/04 06:36:34;;;;;;;23.77;16.73;;;;;;;;;;5030348;28;20037;-77
2022/03/04 06:39:00;;;;;;;29.55;19.17;;;;;;;;;;5013023;28;20041;-74
2022/03/04 06:41:27;;;;;;;15.70;11.80;;;;;;;;;;5012106;28;20213;-74
2022/03/04 06:43:53;;;;;;;31.15;23.35;;;;;;;;;;5029506;28;20578;-74
2022/03/04 06:46:19;;;;;;;17.38;12.70;;;;;;;;;;5028764;28;20390;-75
2022/03/04 06:48:46;;;;;;;27.02;17.55;;;;;;;;;;5030840;28;20053;-77
2022/03/04 06:51:12;;;;;;;17.13;11.88;;;;;;;;;;5030447;28;20046;-77
2022/03/04 06:53:38;;;;;;;34.55;20.27;;;;;;;;;;5030300;28;20124;-75
2022/03/04 06:56:04;;;;;;;27.27;16.55;;;;;;;;;;5012430;28;20184;-77
2022/03/04 06:58:31;;;;;;;31.83;20.00;;;;;;;;;;5030388;28;20041;-76
2022/03/04 07:00:57;;;;;;;22.40;14.10;;;;;;;;;;5026702;28;20472;-75
2022/03/04 07:03:23;;;;;;;16.52;12.00;;;;;;;;;;5013482;28;20141;-75
2022/03/04 07:05:49;;;;;;;28.67;20.48;;;;;;;;;;4967071;28;20058;-75
2022/03/04 07:08:16;;;;;;;25.83;20.23;;;;;;;;;;5007352;28;20603;-75
2022/03/04 07:10:45;;;;;;;17.83;12.15;;;;;;;;;;4991356;28;20046;-74
2022/03/04 07:13:12;;;;;;;19.33;12.07;;;;;;;;;;4991939;28;20088;-75
2022/03/04 07:15:38;;;;;;;18.67;11.93;;;;;;;;;;5018613;28;20042;-74
2022/03/04 07:18:04;;;;;;;28.63;18.75;;;;;;;;;;4997903;28;20042;-75
2022/03/04 07:20:30;;;;;;;22.67;15.70;;;;;;;;;;5009527;28;20053;-77
2022/03/04 07:22:56;;;;;;;24.30;16.42;;;;;;;;;;5010218;28;20046;-77
2022/03/04 07:25:22;;;;;;;18.90;13.88;;;;;;;;;;4993525;28;20037;-74
2022/03/04 07:27:48;;;;;;;27.73;17.27;;;;;;;;;;5042165;28;20058;-74
2022/03/04 07:30:16;;;;;;;12.07;10.77;;;;;;;;;;5039759;28;20061;-73
2022/03/04 07:32:42;;;;;;;23.40;16.85;;;;;;;;;;5030227;28;20101;-75
2022/03/04 07:35:08;;;;;;;22.27;15.68;;;;;;;;;;5028961;28;20406;-74
2022/03/04 07:37:35;;;;;;;20.27;13.18;;;;;;;;;;5029118;28;20041;-75
2022/03/04 07:40:01;;;;;;;12.23;10.90;;;;;;;;;;5029750;28;20076;-77
2022/03/04 07:42:32;;;;;;;19.33;11.90;;;;;;;;;;5014548;28;20565;-79
2022/03/04 07:44:58;;;;;;;25.42;10.25;;;;;;;;;;5013151;28;20052;-78
2022/03/04 07:47:24;;;;;;;14.38;12.82;;;;;;;;;;5012895;28;20506;-79
2022/03/04 07:49:49;;;;;;;21.83;15.43;;;;;;;;;;5017868;28;20131;-75
2022/03/04 07:52:15;;;;;;;18.60;14.15;;;;;;;;;;5045990;28;20037;-75
2022/03/04 07:54:41;;;;;;;17.88;13.70;;;;;;;;;;4986812;28;20741;-75
2022/03/04 07:57:07;;;;;;;18.98;17.05;;;;;;;;;;5033178;28;20077;-75
2022/03/04 07:59:33;;;;;;;9.07;8.27;;;;;;;;;;5003715;28;20038;-74
2022/03/04 08:01:59;;;;;;;18.08;12.80;;;;;;;;;;5027865;28;20148;-74
2022/03/04 08:04:25;;;;;;;13.80;11.98;;;;;;;;;;5038105;28;20055;-75
2022/03/04 08:06:51;;;;;;;17.33;13.85;;;;;;;;;;5034359;28;20052;-74
2022/03/04 08:09:17;;;;;;;16.05;9.88;;;;;;;;;;5051994;28;20052;-75
2022/03/04 08:11:44;;;;;;;13.90;11.73;;;;;;;;;;5050794;28;20045;-78
2022/03/04 08:14:10;;;;;;;21.52;13.93;;;;;;;;;;4978818;28;20527;-78
2022/03/04 08:16:36;;;;;;;12.98;11.35;;;;;;;;;;5014053;28;20037;-78
2022/03/04 08:19:03;;;;;;;13.35;10.70;;;;;;;;;;5011894;28;20099;-78
2022/03/04 08:21:29;;;;;;;13.57;9.57;;;;;;;;;;5028338;28;20049;-78
2022/03/04 08:23:55;;;;;;;12.77;9.98;;;;;;;;;;5012484;28;20056;-78
2022/03/04 08:26:21;;;;;;;21.38;13.77;;;;;;;;;;5030358;28;20038;-78
2022/03/04 08:28:47;;;;;;;13.40;10.98;;;;;;;;;;5013945;28;20075;-78
2022/03/04 08:31:14;;;;;;;11.95;10.32;;;;;;;;;;5028976;28;20033;-77
2022/03/04 08:33:41;;;;;;;13.13;10.15;;;;;;;;;;5030268;28;20044;-77
2022/03/04 08:36:08;;;;;;;14.20;10.35;;;;;;;;;;5031110;28;20100;-76
2022/03/04 08:38:34;;;;;;;11.68;10.52;;;;;;;;;;5031501;28;20519;-79
2022/03/04 08:41:00;;;;;;;8.45;7.60;;;;;;;;;;5030461;28;20041;-78
2022/03/04 08:43:26;;;;;;;10.50;8.70;;;;;;;;;;5030768;28;20055;-77
2022/03/04 08:45:52;;;;;;;19.15;12.68;;;;;;;;;;5013423;28;20497;-77
2022/03/04 08:48:17;;;;;;;8.70;7.82;;;;;;;;;;5030901;28;20045;-77
2022/03/04 08:50:43;;;;;;;9.40;8.57;;;;;;;;;;5028998;28;20100;-77
2022/03/04 08:53:09;;;;;;;10.00;8.48;;;;;;;;;;5012841;28;20049;-77
2022/03/04 08:55:35;;;;;;;29.92;9.93;;;;;;;;;;5029594;28;20029;-78
2022/03/04 08:58:01;;;;;;;11.52;9.70;;;;;;;;;;5013282;28;20053;-78
2022/03/04 09:00:29;;;;;;;9.85;8.82;;;;;;;;;;5030911;28;20045;-77
2022/03/04 09:02:56;;;;;;;10.55;9.35;;;;;;;;;;5013816;28;20057;-78
2022/03/04 09:05:22;;;;;;;18.70;10.70;;;;;;;;;;5030509;28;20651;-79
2022/03/04 09:07:48;;;;;;;11.75;10.13;;;;;;;;;;5030305;28;20045;-77
2022/03/04 09:10:14;;;;;;;15.25;13.25;;;;;;;;;;5030913;28;20518;-78
2022/03/04 09:12:41;;;;;;;11.45;10.45;;;;;;;;;;5013570;28;20160;-78
2022/03/04 09:15:10;;;;;;;18.30;13.40;;;;;;;;;;4996519;28;20045;-78
2022/03/04 09:17:36;;;;;;;10.85;9.10;;;;;;;;;;5013506;28;20200;-77
2022/03/04 09:20:03;;;;;;;10.13;8.85;;;;;;;;;;5030656;28;20468;-77
2022/03/04 09:22:29;;;;;;;12.75;8.60;;;;;;;;;;5031230;28;20140;-78
2022/03/04 09:24:55;;;;;;;6.72;5.70;;;;;;;;;;5030511;28;20128;-78
2022/03/04 09:27:21;;;;;;;16.60;11.18;;;;;;;;;;5030036;28;20053;-78
2022/03/04 09:29:47;;;;;;;11.15;9.30;;;;;;;;;;5029196;28;20038;-78
2022/03/04 09:32:13;;;;;;;15.52;9.55;;;;;;;;;;5030557;28;20045;-79
2022/03/04 09:34:39;;;;;;;14.77;9.70;;;;;;;;;;4996321;28;20098;-78
2022/03/04 09:37:05;;;;;;;16.85;9.45;;;;;;;;;;5030098;28;20551;-77
2022/03/04 09:39:31;;;;;;;20.00;11.68;;;;;;;;;;5028949;28;20037;-77
2022/03/04 09:41:57;;;;;;;12.85;9.75;;;;;;;;;;5028016;28;20061;-78
2022/03/04 09:44:23;;;;;;;16.17;11.55;;;;;;;;;;5029182;28;20050;-78
2022/03/04 09:46:49;;;;;;;11.05;9.88;;;;;;;;;;5030174;28;20049;-77
2022/03/04 09:49:15;;;;;;;14.38;10.55;;;;;;;;;;5028944;28;20402;-77
2022/03/04 09:51:41;;;;;;;15.80;11.18;;;;;;;;;;4995782;28;20141;-78
2022/03/04 09:54:07;;;;;;;18.05;12.10;;;;;;;;;;5029866;28;20142;-78
2022/03/04 09:56:33;;;;;;;8.10;7.38;;;;;;;;;;5012111;28;20049;-78
2022/03/04 09:58:59;;;;;;;16.15;10.00;;;;;;;;;;5011962;28;20539;-79
2022/03/04 10:01:25;;;;;;;12.27;8.82;;;;;;;;;;5028712;28;20132;-78
2022/03/04 10:03:51;;;;;;;9.90;8.23;;;;;;;;;;4995610;28;20045;-78
2022/03/04 10:06:18;;;;;;;11.77;10.38;;;;;;;;;;5011968;28;20052;-78
2022/03/04 10:08:47;;;;;;;10.48;7.65;;;;;;;;;;5028418;28;20045;-79
2022/03/04 10:11:22;;;;;;;13.13;10.27;;;;;;;;;;5029570;28;20056;-77
2022/03/04 10:13:52;;;;;;;12.15;8.75;;;;;;;;;;5028504;28;20042;-79
2022/03/04 10:16:25;;;;;;;8.48;7.10;;;;;;;;;;5029337;28;20045;-79
2022/03/04 10:19:09;;;;;;;11.65;8.30;;;;;;;;;;5029676;28;20124;-80
2022/03/04 10:21:47;;;;;;;18.02;11.85;;;;;;;;;;5026952;28;20048;-80
2022/03/04 10:24:14;;;;;;;12.07;9.40;;;;;;;;;;5019065;28;20558;-77
2022/03/04 10:26:40;;;;;;;7.95;6.45;;;;;;;;;;5019053;28;20061;-77
2022/03/04 10:29:36;;;;;;;16.77;10.00;;;;;;;;;;4999870;28;20045;-79
2022/03/04 10:32:14;;;;;;;10.38;8.73;;;;;;;;;;4984315;28;20040;-77
2022/03/04 10:34:44;;;;;;;12.43;8.23;;;;;;;;;;5008840;28;20054;-76
2022/03/04 10:37:11;;;;;;;8.85;7.43;;;;;;;;;;5002948;28;20071;-76
2022/03/04 10:39:48;;;;;;;9.82;7.75;;;;;;;;;;5022046;28;20045;-78
2022/03/04 10:42:16;;;;;;;6.80;6.22;;;;;;;;;;4965229;28;20425;-75
2022/03/04 10:44:41;;;;;;;7.05;6.15;;;;;;;;;;5028558;28;20037;-75
2022/03/04 10:47:07;;;;;;;7.22;5.55;;;;;;;;;;5027075;28;20140;-74
2022/03/04 10:49:33;;;;;;;7.82;7.03;;;;;;;;;;5024742;28;20048;-75
2022/03/04 10:52:06;;;;;;;10.07;7.80;;;;;;;;;;5028847;28;20053;-76
2022/03/04 10:54:32;;;;;;;9.55;7.00;;;;;;;;;;5029053;28;20072;-76
2022/03/04 10:56:58;;;;;;;9.80;8.80;;;;;;;;;;5011188;28;20512;-75
2022/03/04 10:59:24;;;;;;;8.48;7.07;;;;;;;;;;5011142;28;20510;-75
2022/03/04 11:01:51;;;;;;;7.22;6.43;;;;;;;;;;5028814;28;20056;-75
2022/03/04 11:04:17;;;;;;;5.97;5.20;;;;;;;;;;5028706;28;20045;-73
2022/03/04 11:06:45;;;;;;;7.70;7.00;;;;;;;;;;5011270;28;20552;-74
2022/03/04 11:09:12;;;;;;;8.15;6.78;;;;;;;;;;5005151;28;20645;-74
2022/03/04 11:11:39;;;;;;;8.25;7.45;;;;;;;;;;5000262;28;20037;-73
2022/03/04 11:14:05;;;;;;;8.70;7.75;;;;;;;;;;5004786;28;20136;-75
2022/03/04 11:16:31;;;;;;;7.07;6.35;;;;;;;;;;5014404;28;20041;-75
2022/03/04 11:18:57;;;;;;;5.68;5.25;;;;;;;;;;5012120;28;20054;-76
2022/03/04 11:21:23;;;;;;;10.57;5.85;;;;;;;;;;5011536;28;20129;-74
2022/03/04 11:23:50;;;;;;;6.18;5.68;;;;;;;;;;4962607;28;20620;-75
2022/03/04 11:26:16;;;;;;;7.60;6.50;;;;;;;;;;4960397;28;20092;-75
2022/03/04 11:28:42;;;;;;;7.30;6.07;;;;;;;;;;5015580;28;20053;-75
2022/03/04 11:31:09;;;;;;;5.10;4.60;;;;;;;;;;5017549;28;20513;-74
2022/03/04 11:33:38;;;;;;;4.90;4.28;;;;;;;;;;5018167;28;20041;-76
2022/03/04 11:36:13;;;;;;;9.75;4.72;;;;;;;;;;5021974;28;20036;-75
2022/03/04 11:38:44;;;;;;;4.88;4.40;;;;;;;;;;5035782;28;20048;-76
2022/03/04 11:41:10;;;;;;;5.68;5.20;;;;;;;;;;5038830;28;20040;-76
2022/03/04 11:43:47;;;;;;;5.22;4.82;;;;;;;;;;5037274;28;20049;-75
2022/03/04 11:46:23;;;;;;;4.38;4.07;;;;;;;;;;5038965;28;20049;-76
2022/03/04 11:49:28;;;;;;;4.07;3.72;;;;;;;;;;5028955;28;20042;-75
2022/03/04 11:52:10;;;;;;;5.43;4.78;;;;;;;;;;5009554;28;20054;-75
2022/03/04 11:54:39;;;;;;;5.60;4.53;;;;;;;;;;4989999;28;20141;-75
2022/03/04 11:57:16;;;;;;;7.38;3.83;;;;;;;;;;5005944;28;20056;-75
2022/03/04 11:59:56;;;;;;;6.53;4.60;;;;;;;;;;5014199;28;20136;-76
2022/03/04 12:02:29;;;;;;;4.55;4.15;;;;;;;;;;5013348;28;20053;-75
2022/03/04 12:05:21;;;;;;;10.20;5.57;;;;;;;;;;5013757;28;20041;-75
2022/03/04 12:07:48;;;;;;;7.28;5.20;;;;;;;;;;5009192;28;20539;-76
2022/03/04 12:10:14;;;;;;;7.15;5.00;;;;;;;;;;5030753;28;20048;-76
2022/03/04 12:12:42;;;;;;;4.70;4.40;;;;;;;;;;5029913;28;20509;-76
2022/03/04 12:15:18;;;;;;;5.72;5.22;;;;;;;;;;5029994;28;20041;-74
2022/03/04 12:17:50;;;;;;;4.32;3.95;;;;;;;;;;5031086;28;20099;-74
2022/03/04 12:20:25;;;;;;;4.63;4.22;;;;;;;;;;5013525;28;20029;-74
2022/03/04 12:22:51;;;;;;;4.13;3.72;;;;;;;;;;5030380;28;20050;-75
2022/03/04 12:25:17;;;;;;;5.55;4.68;;;;;;;;;;5031415;28;20116;-74
2022/03/04 12:27:43;;;;;;;5.50;4.15;;;;;;;;;;5014361;28;20057;-76
2022/03/04 12:30:20;;;;;;;4.75;4.35;;;;;;;;;;4996252;28;20048;-75
2022/03/04 12:32:49;;;;;;;4.82;4.40;;;;;;;;;;5005360;28;20045;-75
2022/03/04 12:35:15;;;;;;;10.82;3.88;;;;;;;;;;4990722;28;20105;-74
2022/03/04 12:37:41;;;;;;;5.00;4.40;;;;;;;;;;5007236;28;20038;-74
2022/03/04 12:40:08;;;;;;;4.80;4.40;;;;;;;;;;4991588;28;20114;-74
2022/03/04 12:42:34;;;;;;;4.65;4.20;;;;;;;;;;4999880;28;20049;-74
2022/03/04 12:45:00;;;;;;;5.07;4.65;;;;;;;;;;5017004;28;20041;-75
2022/03/04 12:47:27;;;;;;;5.53;4.50;;;;;;;;;;5010505;28;20048;-75
2022/03/04 12:49:52;;;;;;;3.85;3.55;;;;;;;;;;5010353;28;20046;-74
2022/03/04 12:52:20;;;;;;;4.70;4.30;;;;;;;;;;4992972;28;20033;-75
2022/03/04 12:54:45;;;;;;;4.90;3.72;;;;;;;;;;4992460;28;20501;-75
2022/03/04 12:57:12;;;;;;;6.32;4.85;;;;;;;;;;5022601;28;20100;-75
2022/03/04 12:59:47;;;;;;;5.93;5.07;;;;;;;;;;5005567;28;20076;-74
2022/03/04 13:02:13;;;;;;;4.10;3.78;;;;;;;;;;5002961;28;20081;-74
2022/03/04 13:04:39;;;;;;;6.43;4.35;;;;;;;;;;4999216;28;20111;-75
2022/03/04 13:07:06;;;;;;;4.85;4.32;;;;;;;;;;4994385;28;20076;-74
2022/03/04 13:09:31;;;;;;;5.82;4.50;;;;;;;;;;4975849;28;20042;-74
2022/03/04 13:12:04;;;;;;;7.45;4.40;;;;;;;;;;4957282;28;20050;-75
2022/03/04 13:14:32;;;;;;;5.85;4.38;;;;;;;;;;4990129;28;20050;-74
2022/03/04 13:16:58;;;;;;;6.03;5.43;;;;;;;;;;4986748;28;20034;-74
2022/03/04 13:19:31;;;;;;;6.95;5.80;;;;;;;;;;5003171;28;20070;-73
2022/03/04 13:22:01;;;;;;;7.40;5.47;;;;;;;;;;5010899;28;20047;-74
2022/03/04 13:24:31;;;;;;;6.05;5.05;;;;;;;;;;4996050;28;20053;-72
2022/03/04 13:26:58;;;;;;;7.78;5.63;;;;;;;;;;5013539;28;20049;-73
2022/03/04 13:29:24;;;;;;;7.97;5.20;;;;;;;;;;5027698;28;20041;-73
2022/03/04 13:31:51;;;;;;;6.65;5.53;;;;;;;;;;5027575;28;20037;-73
2022/03/04 13:34:26;;;;;;;8.80;5.32;;;;;;;;;;5029601;28;20041;-73
2022/03/04 13:36:53;;;;;;;8.05;6.20;;;;;;;;;;5028925;28;20026;-73
2022/03/04 13:39:20;;;;;;;9.27;5.45;;;;;;;;;;5029458;28;20049;-73
2022/03/04 13:41:46;;;;;;;9.55;5.13;;;;;;;;;;5030193;28;20064;-73
2022/03/04 13:44:13;;;;;;;9.68;5.80;;;;;;;;;;5030183;28;20517;-73
2022/03/04 13:46:57;;;;;;;6.68;4.60;;;;;;;;;;5029361;28;20048;-73
2022/03/04 13:49:23;;;;;;;4.80;3.80;;;;;;;;;;5029874;28;20448;-72
2022/03/04 13:52:02;;;;;;;5.32;4.30;;;;;;;;;;5029984;28;20041;-72
2022/03/04 13:54:54;;;;;;;3.78;3.47;;;;;;;;;;5012559;28;20045;-72
2022/03/04 13:57:26;;;;;;;5.15;3.47;;;;;;;;;;4995347;28;20520;-73
2022/03/04 13:59:52;;;;;;;5.65;5.10;;;;;;;;;;5029868;28;20092;-73
2022/03/04 14:02:18;;;;;;;4.18;3.88;;;;;;;;;;5029589;28;20448;-73
2022/03/04 14:04:51;;;;;;;5.13;3.70;;;;;;;;;;5012325;28;20049;-72
2022/03/04 14:07:18;;;;;;;4.60;4.20;;;;;;;;;;5029609;28;20525;-73
2022/03/04 14:09:45;;;;;;;5.45;4.82;;;;;;;;;;5012225;28;20540;-73
2022/03/04 14:12:11;;;;;;;8.15;4.05;;;;;;;;;;5029218;28;20196;-73
2022/03/04 14:14:37;;;;;;;4.85;4.38;;;;;;;;;;5029893;28;20536;-73
2022/03/04 14:17:03;;;;;;;4.63;3.72;;;;;;;;;;5029547;28;20072;-73
2022/03/04 14:19:29;;;;;;;6.40;4.70;;;;;;;;;;4992225;28;20460;-73
2022/03/04 14:21:55;;;;;;;14.85;9.65;;;;;;;;;;5012922;28;20049;-73
2022/03/04 14:24:21;;;;;;;6.00;4.47;;;;;;;;;;4995669;28;20557;-73
2022/03/04 14:26:47;;;;;;;5.70;5.20;;;;;;;;;;5029077;28;20064;-73
2022/03/04 14:29:19;;;;;;;7.60;5.70;;;;;;;;;;5028160;28;20042;-73
2022/03/04 14:31:45;;;;;;;6.85;5.05;;;;;;;;;;5029255;28;20041;-73
2022/03/04 14:34:11;;;;;;;5.97;5.05;;;;;;;;;;5027664;28;20056;-72
2022/03/04 14:36:37;;;;;;;7.57;6.97;;;;;;;;;;5011410;28;20040;-72
2022/03/04 14:39:04;;;;;;;4.95;4.55;;;;;;;;;;5029361;28;20159;-73
2022/03/04 14:41:30;;;;;;;6.93;6.22;;;;;;;;;;5029176;28;20072;-73
2022/03/04 14:43:56;;;;;;;9.30;5.40;;;;;;;;;;5029300;28;20045;-73
2022/03/04 14:46:25;;;;;;;8.27;5.45;;;;;;;;;;5028921;28;20509;-73
2022/03/04 14:48:51;;;;;;;4.55;4.15;;;;;;;;;;5027730;28;20056;-73
2022/03/04 14:51:17;;;;;;;5.85;4.95;;;;;;;;;;5032644;28;20042;-73
2022/03/04 14:53:43;;;;;;;5.05;4.55;;;;;;;;;;5033345;28;20104;-73
2022/03/04 14:56:10;;;;;;;6.68;5.47;;;;;;;;;;5015282;28;20029;-74
2022/03/04 14:58:36;;;;;;;4.50;4.10;;;;;;;;;;5033191;28;20584;-73
2022/03/04 15:01:02;;;;;;;6.28;4.65;;;;;;;;;;5033119;28;20041;-73
2022/03/04 15:03:28;;;;;;;4.65;4.22;;;;;;;;;;5031396;28;20053;-72
2022/03/04 15:05:54;;;;;;;4.47;4.07;;;;;;;;;;5032958;28;20037;-73
2022/03/04 15:08:20;;;;;;;6.15;4.88;;;;;;;;;;5032820;28;20056;-73
2022/03/04 15:10:46;;;;;;;4.82;4.43;;;;;;;;;;5014768;28;20033;-73
2022/03/04 15:13:12;;;;;;;7.22;5.75;;;;;;;;;;5032303;28;20398;-73
2022/03/04 15:15:38;;;;;;;5.05;3.85;;;;;;;;;;5029821;28;20064;-72
2022/03/04 15:18:03;;;;;;;4.30;3.90;;;;;;;;;;5009154;28;20048;-73
2022/03/04 15:20:30;;;;;;;9.43;4.90;;;;;;;;;;5031973;28;20036;-73
2022/03/04 15:22:56;;;;;;;6.28;4.68;;;;;;;;;;5053190;28;20060;-76
2022/03/04 15:25:22;;;;;;;9.48;4.50;;;;;;;;;;5052820;28;20045;-75
2022/03/04 15:27:50;;;;;;;6.20;5.70;;;;;;;;;;5051431;28;20199;-76
2022/03/04 15:30:15;;;;;;;9.13;5.00;;;;;;;;;;5052630;28;20389;-76
2022/03/04 15:32:42;;;;;;;6.22;5.03;;;;;;;;;;5052587;28;20047;-75
2022/03/04 15:35:08;;;;;;;5.20;4.80;;;;;;;;;;5052731;28;20500;-74
2022/03/04 15:37:34;;;;;;;6.45;4.75;;;;;;;;;;5027041;28;20583;-73
2022/03/04 15:40:00;;;;;;;6.10;5.50;;;;;;;;;;5027222;28;20045;-74
2022/03/04 15:42:25;;;;;;;9.95;6.68;;;;;;;;;;5032509;28;20140;-74
2022/03/04 15:44:55;;;;;;;5.75;5.18;;;;;;;;;;5033744;28;20469;-74
2022/03/04 15:47:21;;;;;;;6.32;4.30;;;;;;;;;;5032195;28;20608;-73